• Join FlightAware (Why Join?)
  • Login
  • US Flag 
03:25PM EDT


 

Airport Tracker/Info


-or-


 

Live Flight TrackerFlight Track Log ✈ PDT4226 ✈ 31-Jan-2014 ✈ KBGM - KPHL

Flight Track Log - Related Links

Times and Time Zones

All times are in EST time to prevent confusion due to time zone crossing. See the PDT4226 flight status page for this flight to view local times or setup timezone preferences in your user account.

Time Position Orientation Groundspeed Altitude Reporting Facility
EST Latitude Longitude Course Direction KTS MPH feet Rate Location/Type
01:38PM 42.0782 -75.9370 173° South  Level Estimated
01:39PM 42.0336 -75.9343 177° South  Level FlightAware Approximate
01:40PM 41.9902 -75.9200 180° South  Level Estimated
01:41PM 41.9456 -75.9224 182° South  Level FlightAware Approximate
01:42PM 41.9010 -75.9249 182° South  Level FlightAware Approximate
01:43PM 41.8563 -75.9274 182° South  Level FlightAware Approximate
01:44PM 41.8117 -75.9299 182° South  Level FlightAware Approximate
01:45PM 41.7671 -75.9324 182° South  Level FlightAware Approximate
01:46PM 41.7241 -75.9162 154° Southeast  Level Estimated
01:47PM 41.6811 -75.9001 160° South  Level Estimated
01:48PM 41.6381 -75.8840 159° South  Level Estimated
01:49PM 41.5974 -75.8592 156° South  Level FlightAware Approximate
01:50PM 41.5568 -75.8345 156° South  Level FlightAware Approximate
01:51PM 41.5161 -75.8098 156° South  Level FlightAware Approximate
01:52PM 41.4729 -75.7944 153° Southeast  Level Estimated
01:53PM 41.4298 -75.7792 161° South  Level Estimated
01:54PM 41.3889 -75.7551 156° South  Level FlightAware Approximate
01:55PM 41.3480 -75.7311 156° South  Level FlightAware Approximate
01:56PM 41.3072 -75.7071 156° South  Level FlightAware Approximate
01:57PM 41.2638 -75.6927 162° South  Level Estimated
01:58PM 41.2218 -75.6725 160° South  Level FlightAware Approximate
01:59PM 41.1798 -75.6524 160° South  Level FlightAware Approximate
02:00PM 41.1378 -75.6323 160° South  Level FlightAware Approximate
02:01PM 41.0957 -75.6123 160° South  Level FlightAware Approximate
02:01PM 40.7000 -75.4500 162° South 252 290 6,600  Level Philadelphia TRACON
02:02PM 41.0537 -75.5922 160° South  Level FlightAware Approximate
02:02PM 40.6167 -75.4833 197° South 239 275 5,900  Level Philadelphia TRACON
02:03PM 41.0117 -75.5722 160° South  Level FlightAware Approximate
02:03PM 40.5500 -75.5000 191° South 237 273 5,500  Level Philadelphia TRACON
02:04PM 40.9681 -75.5593 163° South  Level Estimated
02:04PM 40.4833 -75.5167 191° South 243 280 5,000  Level Philadelphia TRACON
02:05PM 40.8938 -75.5270 162° South  Level FlightAware Approximate
02:05PM 40.4167 -75.5167 180° South 235 270 5,000  Level Philadelphia TRACON
02:06PM 40.8196 -75.4947 162° South  Level FlightAware Approximate
02:06PM 40.3500 -75.5333 191° South 228 262 5,000  Level Philadelphia TRACON
02:07PM 40.3000 -75.5500 194° South 238 274 4,400 -540 Descending Philadelphia TRACON
02:08PM 40.2333 -75.5000 150° Southeast 259 298 4,000 -240 Descending Philadelphia TRACON
02:09PM 40.1833 -75.4500 143° Southeast 246 283 4,000  Level Philadelphia TRACON
02:10PM 40.1500 -75.3667 118° Southeast 244 281 4,000  Level Philadelphia TRACON
02:11PM 40.1000 -75.2833 128° Southeast 245 282 4,000  Level Philadelphia TRACON
02:12PM 40.0500 -75.2500 153° Southeast 224 258 4,000  Level Philadelphia TRACON
02:13PM 40.0000 -75.2000 143° Southeast 215 247 4,000  Level Philadelphia TRACON
02:14PM 39.9500 -75.1833 166° South 207 238 4,000  Level Philadelphia TRACON
02:15PM 39.9000 -75.1500 153° Southeast 211 243 4,000 -300 Level Philadelphia TRACON
02:16PM 39.8500 -75.1167 153° Southeast 214 246 3,400 -540 Descending Philadelphia TRACON
02:17PM 39.8000 -75.0833 153° Southeast 221 254 3,000 -480 Descending Philadelphia TRACON
02:18PM 39.7500 -75.1000 194° South 191 220 2,500 -660 Descending Philadelphia TRACON
02:19PM 39.7500 -75.1500 270° West 157 181 1,700 -480 Descending Philadelphia TRACON
02:20PM 39.7833 -75.1833 322° Northwest 148 170 1,600 -300 Descending Philadelphia TRACON
02:21PM 39.8333 -75.2000 346° North 133 153 1,100 -600 Descending Philadelphia TRACON
02:22PM 39.8667 -75.2167 339° North 116 133 400 -720 Descending Philadelphia TRACON